sensor_id;sensor_type;location;lat;lon;timestamp;P1;durP1;ratioP1;P2;durP2;ratioP2
70981;SDS011;58640;51.320;9.456;2023-03-11T00:01:11;3.10;;;2.70;;
70981;SDS011;58640;51.320;9.456;2023-03-11T00:03:37;3.43;;;2.43;;
70981;SDS011;58640;51.320;9.456;2023-03-11T00:06:02;2.70;;;2.33;;
70981;SDS011;58640;51.320;9.456;2023-03-11T00:08:28;2.83;;;2.17;;
70981;SDS011;58640;51.320;9.456;2023-03-11T00:10:55;5.03;;;2.83;;
70981;SDS011;58640;51.320;9.456;2023-03-11T00:13:22;3.83;;;2.30;;
70981;SDS011;58640;51.320;9.456;2023-03-11T00:15:48;1.97;;;1.70;;
70981;SDS011;58640;51.320;9.456;2023-03-11T00:18:15;2.73;;;2.00;;
70981;SDS011;58640;51.320;9.456;2023-03-11T00:20:42;2.20;;;2.00;;
70981;SDS011;58640;51.320;9.456;2023-03-11T00:23:10;2.00;;;1.70;;
70981;SDS011;58640;51.320;9.456;2023-03-11T00:25:37;2.80;;;2.00;;
70981;SDS011;58640;51.320;9.456;2023-03-11T00:28:03;1.77;;;1.67;;
70981;SDS011;58640;51.320;9.456;2023-03-11T00:30:31;2.77;;;1.90;;
70981;SDS011;58640;51.320;9.456;2023-03-11T00:32:57;1.93;;;1.73;;
70981;SDS011;58640;51.320;9.456;2023-03-11T00:35:26;2.70;;;1.97;;
70981;SDS011;58640;51.320;9.456;2023-03-11T00:37:55;2.07;;;1.87;;
70981;SDS011;58640;51.320;9.456;2023-03-11T00:40:22;2.00;;;1.70;;
70981;SDS011;58640;51.320;9.456;2023-03-11T00:42:49;1.60;;;1.50;;
70981;SDS011;58640;51.320;9.456;2023-03-11T00:45:15;1.70;;;1.60;;
70981;SDS011;58640;51.320;9.456;2023-03-11T00:47:40;2.23;;;1.83;;
70981;SDS011;58640;51.320;9.456;2023-03-11T00:50:06;1.80;;;1.60;;
70981;SDS011;58640;51.320;9.456;2023-03-11T00:52:33;2.23;;;1.60;;
70981;SDS011;58640;51.320;9.456;2023-03-11T00:54:59;2.60;;;2.10;;
70981;SDS011;58640;51.320;9.456;2023-03-11T00:57:24;1.40;;;1.30;;
70981;SDS011;58640;51.320;9.456;2023-03-11T00:59:53;2.20;;;1.83;;
70981;SDS011;58640;51.320;9.456;2023-03-11T01:02:18;1.87;;;1.67;;
70981;SDS011;58640;51.320;9.456;2023-03-11T01:04:43;2.20;;;1.67;;
70981;SDS011;58640;51.320;9.456;2023-03-11T01:07:09;1.70;;;1.60;;
70981;SDS011;58640;51.320;9.456;2023-03-11T01:09:34;5.10;;;2.00;;
70981;SDS011;58640;51.320;9.456;2023-03-11T01:11:59;2.07;;;1.73;;
70981;SDS011;58640;51.320;9.456;2023-03-11T01:14:24;1.53;;;1.33;;
70981;SDS011;58640;51.320;9.456;2023-03-11T01:16:50;2.70;;;1.63;;
70981;SDS011;58640;51.320;9.456;2023-03-11T01:19:15;2.20;;;1.60;;
70981;SDS011;58640;51.320;9.456;2023-03-11T01:21:40;2.10;;;1.73;;
70981;SDS011;58640;51.320;9.456;2023-03-11T01:24:07;2.00;;;1.80;;
70981;SDS011;58640;51.320;9.456;2023-03-11T01:26:32;1.47;;;1.37;;
70981;SDS011;58640;51.320;9.456;2023-03-11T01:28:58;1.93;;;1.83;;
70981;SDS011;58640;51.320;9.456;2023-03-11T01:31:23;3.07;;;2.00;;
70981;SDS011;58640;51.320;9.456;2023-03-11T01:33:48;1.97;;;1.53;;
70981;SDS011;58640;51.320;9.456;2023-03-11T01:36:14;2.57;;;1.60;;
70981;SDS011;58640;51.320;9.456;2023-03-11T01:38:39;1.90;;;1.70;;
70981;SDS011;58640;51.320;9.456;2023-03-11T01:41:04;2.50;;;1.97;;
70981;SDS011;58640;51.320;9.456;2023-03-11T01:48:45;1.60;;;1.50;;
70981;SDS011;58640;51.320;9.456;2023-03-11T01:51:12;1.87;;;1.60;;
70981;SDS011;58640;51.320;9.456;2023-03-11T01:53:39;1.40;;;1.30;;
70981;SDS011;58640;51.320;9.456;2023-03-11T01:56:04;1.57;;;1.40;;
70981;SDS011;58640;51.320;9.456;2023-03-11T01:58:31;2.83;;;1.40;;
70981;SDS011;58640;51.320;9.456;2023-03-11T02:01:02;2.27;;;1.90;;
70981;SDS011;58640;51.320;9.456;2023-03-11T02:03:30;2.57;;;1.70;;
70981;SDS011;58640;51.320;9.456;2023-03-11T02:05:59;3.90;;;1.90;;
70981;SDS011;58640;51.320;9.456;2023-03-11T02:08:26;1.80;;;1.70;;
70981;SDS011;58640;51.320;9.456;2023-03-11T02:10:53;3.73;;;1.83;;
70981;SDS011;58640;51.320;9.456;2023-03-11T02:13:20;2.93;;;1.73;;
70981;SDS011;58640;51.320;9.456;2023-03-11T02:15:47;3.80;;;1.73;;
70981;SDS011;58640;51.320;9.456;2023-03-11T02:18:13;2.67;;;1.80;;
70981;SDS011;58640;51.320;9.456;2023-03-11T02:20:46;2.20;;;1.63;;
70981;SDS011;58640;51.320;9.456;2023-03-11T02:23:46;3.17;;;1.50;;
70981;SDS011;58640;51.320;9.456;2023-03-11T02:26:27;2.53;;;2.00;;
70981;SDS011;58640;51.320;9.456;2023-03-11T02:29:12;3.73;;;1.77;;
70981;SDS011;58640;51.320;9.456;2023-03-11T02:31:38;1.93;;;1.63;;
70981;SDS011;58640;51.320;9.456;2023-03-11T02:34:07;1.80;;;1.70;;
70981;SDS011;58640;51.320;9.456;2023-03-11T02:36:40;2.33;;;1.85;;
70981;SDS011;58640;51.320;9.456;2023-03-11T02:39:07;3.33;;;1.90;;
70981;SDS011;58640;51.320;9.456;2023-03-11T02:41:34;4.40;;;2.00;;
70981;SDS011;58640;51.320;9.456;2023-03-11T02:44:02;4.20;;;2.23;;
70981;SDS011;58640;51.320;9.456;2023-03-11T02:46:30;3.03;;;1.60;;
70981;SDS011;58640;51.320;9.456;2023-03-11T02:48:56;2.30;;;1.77;;
70981;SDS011;58640;51.320;9.456;2023-03-11T02:51:21;2.30;;;1.47;;
70981;SDS011;58640;51.320;9.456;2023-03-11T02:53:48;3.77;;;1.53;;
70981;SDS011;58640;51.320;9.456;2023-03-11T02:56:16;7.70;;;1.60;;
70981;SDS011;58640;51.320;9.456;2023-03-11T02:58:42;2.87;;;1.60;;
70981;SDS011;58640;51.320;9.456;2023-03-11T03:01:07;2.47;;;1.50;;
70981;SDS011;58640;51.320;9.456;2023-03-11T03:03:32;4.57;;;1.60;;
70981;SDS011;58640;51.320;9.456;2023-03-11T03:05:58;5.80;;;1.85;;
70981;SDS011;58640;51.320;9.456;2023-03-11T03:08:23;1.77;;;1.67;;
70981;SDS011;58640;51.320;9.456;2023-03-11T03:10:48;1.40;;;1.33;;
70981;SDS011;58640;51.320;9.456;2023-03-11T03:13:14;2.93;;;1.70;;
70981;SDS011;58640;51.320;9.456;2023-03-11T03:15:39;1.47;;;1.37;;
70981;SDS011;58640;51.320;9.456;2023-03-11T03:18:04;4.57;;;1.53;;
70981;SDS011;58640;51.320;9.456;2023-03-11T03:20:30;5.03;;;1.87;;
70981;SDS011;58640;51.320;9.456;2023-03-11T03:22:55;3.70;;;1.83;;
70981;SDS011;58640;51.320;9.456;2023-03-11T03:25:21;3.93;;;1.77;;
70981;SDS011;58640;51.320;9.456;2023-03-11T03:27:46;5.13;;;1.77;;
70981;SDS011;58640;51.320;9.456;2023-03-11T03:30:12;5.03;;;1.83;;
70981;SDS011;58640;51.320;9.456;2023-03-11T03:32:37;4.30;;;1.70;;
70981;SDS011;58640;51.320;9.456;2023-03-11T03:35:03;4.23;;;1.30;;
70981;SDS011;58640;51.320;9.456;2023-03-11T03:37:31;2.83;;;1.60;;
70981;SDS011;58640;51.320;9.456;2023-03-11T03:39:57;2.20;;;1.83;;
70981;SDS011;58640;51.320;9.456;2023-03-11T03:42:23;7.00;;;1.73;;
70981;SDS011;58640;51.320;9.456;2023-03-11T03:44:49;1.67;;;1.20;;
70981;SDS011;58640;51.320;9.456;2023-03-11T03:47:16;5.67;;;1.20;;
70981;SDS011;58640;51.320;9.456;2023-03-11T03:49:41;1.90;;;1.17;;
70981;SDS011;58640;51.320;9.456;2023-03-11T03:52:07;4.80;;;1.47;;
70981;SDS011;58640;51.320;9.456;2023-03-11T03:54:32;3.13;;;1.47;;
70981;SDS011;58640;51.320;9.456;2023-03-11T03:56:59;2.83;;;1.33;;
70981;SDS011;58640;51.320;9.456;2023-03-11T03:59:24;3.63;;;1.80;;
70981;SDS011;58640;51.320;9.456;2023-03-11T04:01:50;3.45;;;1.75;;
70981;SDS011;58640;51.320;9.456;2023-03-11T04:04:15;4.30;;;1.60;;
70981;SDS011;58640;51.320;9.456;2023-03-11T04:06:41;2.77;;;1.60;;
70981;SDS011;58640;51.320;9.456;2023-03-11T04:09:06;7.60;;;1.90;;
70981;SDS011;58640;51.320;9.456;2023-03-11T04:11:34;2.70;;;1.30;;
70981;SDS011;58640;51.320;9.456;2023-03-11T04:14:00;6.80;;;1.57;;
70981;SDS011;58640;51.320;9.456;2023-03-11T04:16:26;6.60;;;2.20;;
70981;SDS011;58640;51.320;9.456;2023-03-11T04:18:51;2.53;;;1.70;;
70981;SDS011;58640;51.320;9.456;2023-03-11T04:21:17;2.60;;;2.00;;
70981;SDS011;58640;51.320;9.456;2023-03-11T04:23:42;5.43;;;2.00;;
70981;SDS011;58640;51.320;9.456;2023-03-11T04:26:07;4.67;;;2.07;;
70981;SDS011;58640;51.320;9.456;2023-03-11T04:28:33;3.37;;;1.80;;
70981;SDS011;58640;51.320;9.456;2023-03-11T04:30:58;5.53;;;1.90;;
70981;SDS011;58640;51.320;9.456;2023-03-11T04:33:23;2.80;;;1.57;;
70981;SDS011;58640;51.320;9.456;2023-03-11T04:35:49;3.33;;;1.70;;
70981;SDS011;58640;51.320;9.456;2023-03-11T04:38:14;4.87;;;2.07;;
70981;SDS011;58640;51.320;9.456;2023-03-11T04:40:39;7.60;;;2.13;;
70981;SDS011;58640;51.320;9.456;2023-03-11T04:43:05;5.23;;;2.13;;
70981;SDS011;58640;51.320;9.456;2023-03-11T04:45:31;5.23;;;2.23;;
70981;SDS011;58640;51.320;9.456;2023-03-11T04:47:56;5.87;;;2.47;;
70981;SDS011;58640;51.320;9.456;2023-03-11T04:50:21;6.20;;;1.83;;
70981;SDS011;58640;51.320;9.456;2023-03-11T04:52:47;6.07;;;2.30;;
70981;SDS011;58640;51.320;9.456;2023-03-11T04:55:13;2.20;;;2.00;;
70981;SDS011;58640;51.320;9.456;2023-03-11T04:57:39;2.43;;;1.93;;
70981;SDS011;58640;51.320;9.456;2023-03-11T05:00:05;4.57;;;2.03;;
70981;SDS011;58640;51.320;9.456;2023-03-11T05:02:39;3.73;;;1.90;;
70981;SDS011;58640;51.320;9.456;2023-03-11T05:05:05;3.67;;;1.97;;
70981;SDS011;58640;51.320;9.456;2023-03-11T05:07:33;2.83;;;2.13;;
70981;SDS011;58640;51.320;9.456;2023-03-11T05:09:58;4.20;;;2.07;;
70981;SDS011;58640;51.320;9.456;2023-03-11T05:12:24;7.23;;;2.50;;
70981;SDS011;58640;51.320;9.456;2023-03-11T05:14:49;6.60;;;2.13;;
70981;SDS011;58640;51.320;9.456;2023-03-11T05:17:14;3.37;;;1.90;;
70981;SDS011;58640;51.320;9.456;2023-03-11T05:19:42;3.50;;;2.10;;
70981;SDS011;58640;51.320;9.456;2023-03-11T05:22:07;3.40;;;1.70;;
70981;SDS011;58640;51.320;9.456;2023-03-11T05:24:34;4.37;;;1.63;;
70981;SDS011;58640;51.320;9.456;2023-03-11T05:26:59;5.77;;;2.33;;
70981;SDS011;58640;51.320;9.456;2023-03-11T05:29:25;2.37;;;1.80;;
70981;SDS011;58640;51.320;9.456;2023-03-11T05:31:51;2.13;;;1.77;;
70981;SDS011;58640;51.320;9.456;2023-03-11T05:34:17;4.13;;;1.90;;
70981;SDS011;58640;51.320;9.456;2023-03-11T05:36:43;2.03;;;1.53;;
70981;SDS011;58640;51.320;9.456;2023-03-11T05:39:08;1.90;;;1.60;;
70981;SDS011;58640;51.320;9.456;2023-03-11T05:41:34;8.50;;;2.10;;
70981;SDS011;58640;51.320;9.456;2023-03-11T05:43:59;4.53;;;2.40;;
70981;SDS011;58640;51.320;9.456;2023-03-11T05:46:25;2.88;;;2.40;;
70981;SDS011;58640;51.320;9.456;2023-03-11T05:48:50;5.30;;;1.80;;
70981;SDS011;58640;51.320;9.456;2023-03-11T05:51:15;5.27;;;2.13;;
70981;SDS011;58640;51.320;9.456;2023-03-11T05:53:42;6.33;;;1.90;;
70981;SDS011;58640;51.320;9.456;2023-03-11T05:56:12;4.30;;;1.70;;
70981;SDS011;58640;51.320;9.456;2023-03-11T05:58:37;4.77;;;2.10;;
70981;SDS011;58640;51.320;9.456;2023-03-11T06:01:06;9.10;;;2.00;;
70981;SDS011;58640;51.320;9.456;2023-03-11T06:03:32;3.33;;;2.03;;
70981;SDS011;58640;51.320;9.456;2023-03-11T06:05:57;2.40;;;1.60;;
70981;SDS011;58640;51.320;9.456;2023-03-11T06:08:23;6.40;;;2.10;;
70981;SDS011;58640;51.320;9.456;2023-03-11T06:10:48;4.33;;;2.00;;
70981;SDS011;58640;51.320;9.456;2023-03-11T06:13:13;3.20;;;2.07;;
70981;SDS011;58640;51.320;9.456;2023-03-11T06:15:39;4.33;;;2.40;;
70981;SDS011;58640;51.320;9.456;2023-03-11T06:18:04;3.70;;;2.00;;
70981;SDS011;58640;51.320;9.456;2023-03-11T06:20:30;2.40;;;2.13;;
70981;SDS011;58640;51.320;9.456;2023-03-11T06:22:55;4.27;;;1.77;;
70981;SDS011;58640;51.320;9.456;2023-03-11T06:25:20;4.20;;;2.33;;
70981;SDS011;58640;51.320;9.456;2023-03-11T06:27:49;7.80;;;1.93;;
70981;SDS011;58640;51.320;9.456;2023-03-11T06:30:17;5.97;;;3.50;;
70981;SDS011;58640;51.320;9.456;2023-03-11T06:32:44;9.63;;;1.90;;
70981;SDS011;58640;51.320;9.456;2023-03-11T06:35:10;3.93;;;2.00;;
70981;SDS011;58640;51.320;9.456;2023-03-11T06:37:36;10.37;;;2.60;;
70981;SDS011;58640;51.320;9.456;2023-03-11T06:40:01;6.83;;;2.47;;
70981;SDS011;58640;51.320;9.456;2023-03-11T06:42:29;3.67;;;2.40;;
70981;SDS011;58640;51.320;9.456;2023-03-11T06:44:54;6.23;;;1.93;;
70981;SDS011;58640;51.320;9.456;2023-03-11T06:47:19;5.80;;;1.90;;
70981;SDS011;58640;51.320;9.456;2023-03-11T06:49:45;4.13;;;1.73;;
70981;SDS011;58640;51.320;9.456;2023-03-11T06:52:10;5.10;;;1.83;;
70981;SDS011;58640;51.320;9.456;2023-03-11T06:54:35;6.30;;;2.17;;
70981;SDS011;58640;51.320;9.456;2023-03-11T06:57:01;4.20;;;1.43;;
70981;SDS011;58640;51.320;9.456;2023-03-11T06:59:26;11.73;;;2.23;;
70981;SDS011;58640;51.320;9.456;2023-03-11T07:01:52;1.60;;;1.50;;
70981;SDS011;58640;51.320;9.456;2023-03-11T07:04:18;8.07;;;2.00;;
70981;SDS011;58640;51.320;9.456;2023-03-11T07:06:43;4.17;;;2.00;;
70981;SDS011;58640;51.320;9.456;2023-03-11T07:09:08;6.37;;;1.83;;
70981;SDS011;58640;51.320;9.456;2023-03-11T07:11:34;5.30;;;2.07;;
70981;SDS011;58640;51.320;9.456;2023-03-11T07:13:59;4.47;;;1.30;;
70981;SDS011;58640;51.320;9.456;2023-03-11T07:16:25;5.67;;;1.90;;
70981;SDS011;58640;51.320;9.456;2023-03-11T07:18:53;2.60;;;2.00;;
70981;SDS011;58640;51.320;9.456;2023-03-11T07:21:22;2.90;;;1.97;;
70981;SDS011;58640;51.320;9.456;2023-03-11T07:23:55;7.30;;;1.93;;
70981;SDS011;58640;51.320;9.456;2023-03-11T07:26:22;9.30;;;1.77;;
70981;SDS011;58640;51.320;9.456;2023-03-11T07:28:47;3.67;;;1.83;;
70981;SDS011;58640;51.320;9.456;2023-03-11T07:31:17;8.37;;;2.10;;
70981;SDS011;58640;51.320;9.456;2023-03-11T07:33:44;5.73;;;2.00;;
70981;SDS011;58640;51.320;9.456;2023-03-11T07:36:11;3.15;;;1.63;;
70981;SDS011;58640;51.320;9.456;2023-03-11T07:38:39;2.90;;;1.80;;
70981;SDS011;58640;51.320;9.456;2023-03-11T07:41:05;6.33;;;1.60;;
70981;SDS011;58640;51.320;9.456;2023-03-11T07:43:31;2.90;;;1.63;;
70981;SDS011;58640;51.320;9.456;2023-03-11T07:46:13;5.10;;;1.67;;
70981;SDS011;58640;51.320;9.456;2023-03-11T07:48:42;2.17;;;1.60;;
70981;SDS011;58640;51.320;9.456;2023-03-11T07:51:10;3.00;;;1.63;;
70981;SDS011;58640;51.320;9.456;2023-03-11T07:53:37;3.87;;;1.77;;
70981;SDS011;58640;51.320;9.456;2023-03-11T07:56:04;3.57;;;1.33;;
70981;SDS011;58640;51.320;9.456;2023-03-11T07:58:30;4.90;;;1.70;;
70981;SDS011;58640;51.320;9.456;2023-03-11T08:01:01;5.70;;;2.10;;
70981;SDS011;58640;51.320;9.456;2023-03-11T08:03:28;3.60;;;1.50;;
70981;SDS011;58640;51.320;9.456;2023-03-11T08:05:53;7.23;;;1.40;;
70981;SDS011;58640;51.320;9.456;2023-03-11T08:08:18;10.27;;;1.77;;
70981;SDS011;58640;51.320;9.456;2023-03-11T08:10:44;3.77;;;1.70;;
70981;SDS011;58640;51.320;9.456;2023-03-11T08:13:09;4.07;;;1.55;;
70981;SDS011;58640;51.320;9.456;2023-03-11T08:15:35;8.20;;;2.30;;
70981;SDS011;58640;51.320;9.456;2023-03-11T08:18:01;5.55;;;1.83;;
70981;SDS011;58640;51.320;9.456;2023-03-11T08:20:26;3.33;;;1.38;;
70981;SDS011;58640;51.320;9.456;2023-03-11T08:22:51;1.33;;;1.13;;
70981;SDS011;58640;51.320;9.456;2023-03-11T08:25:16;3.25;;;1.50;;
70981;SDS011;58640;51.320;9.456;2023-03-11T08:27:42;8.00;;;1.80;;
70981;SDS011;58640;51.320;9.456;2023-03-11T08:30:08;3.85;;;1.20;;
70981;SDS011;58640;51.320;9.456;2023-03-11T08:32:34;9.48;;;2.55;;
70981;SDS011;58640;51.320;9.456;2023-03-11T08:34:59;4.78;;;1.20;;
70981;SDS011;58640;51.320;9.456;2023-03-11T08:37:25;4.25;;;1.30;;
70981;SDS011;58640;51.320;9.456;2023-03-11T08:39:50;5.63;;;1.15;;
70981;SDS011;58640;51.320;9.456;2023-03-11T08:42:16;5.57;;;1.02;;
70981;SDS011;58640;51.320;9.456;2023-03-11T08:44:42;3.70;;;1.30;;
70981;SDS011;58640;51.320;9.456;2023-03-11T08:47:07;5.97;;;1.30;;
70981;SDS011;58640;51.320;9.456;2023-03-11T08:49:33;3.03;;;1.05;;
70981;SDS011;58640;51.320;9.456;2023-03-11T08:52:00;7.55;;;1.40;;
70981;SDS011;58640;51.320;9.456;2023-03-11T08:54:25;1.98;;;1.20;;
70981;SDS011;58640;51.320;9.456;2023-03-11T08:56:51;6.07;;;0.93;;
70981;SDS011;58640;51.320;9.456;2023-03-11T08:59:16;7.57;;;1.15;;
70981;SDS011;58640;51.320;9.456;2023-03-11T09:01:41;4.28;;;1.10;;
70981;SDS011;58640;51.320;9.456;2023-03-11T09:04:07;4.15;;;0.98;;
70981;SDS011;58640;51.320;9.456;2023-03-11T09:06:32;1.65;;;1.00;;
70981;SDS011;58640;51.320;9.456;2023-03-11T09:08:58;4.22;;;1.50;;
70981;SDS011;58640;51.320;9.456;2023-03-11T09:11:23;1.55;;;0.80;;
70981;SDS011;58640;51.320;9.456;2023-03-11T09:13:49;3.08;;;0.93;;
70981;SDS011;58640;51.320;9.456;2023-03-11T09:16:15;3.80;;;0.70;;
70981;SDS011;58640;51.320;9.456;2023-03-11T09:18:45;3.47;;;1.05;;
70981;SDS011;58640;51.320;9.456;2023-03-11T09:21:10;5.45;;;0.90;;
70981;SDS011;58640;51.320;9.456;2023-03-11T09:23:37;4.47;;;1.23;;
70981;SDS011;58640;51.320;9.456;2023-03-11T09:26:03;4.60;;;1.42;;
70981;SDS011;58640;51.320;9.456;2023-03-11T09:28:28;4.05;;;1.10;;
70981;SDS011;58640;51.320;9.456;2023-03-11T09:30:54;1.90;;;1.52;;
70981;SDS011;58640;51.320;9.456;2023-03-11T09:33:19;4.30;;;1.20;;
70981;SDS011;58640;51.320;9.456;2023-03-11T09:35:44;2.58;;;0.80;;
70981;SDS011;58640;51.320;9.456;2023-03-11T09:38:10;5.45;;;0.82;;
70981;SDS011;58640;51.320;9.456;2023-03-11T09:43:44;2.22;;;0.90;;
70981;SDS011;58640;51.320;9.456;2023-03-11T09:46:26;4.65;;;0.93;;
70981;SDS011;58640;51.320;9.456;2023-03-11T09:52:10;1.85;;;1.15;;
70981;SDS011;58640;51.320;9.456;2023-03-11T09:54:39;5.57;;;1.25;;
70981;SDS011;58640;51.320;9.456;2023-03-11T09:57:14;2.65;;;1.00;;
70981;SDS011;58640;51.320;9.456;2023-03-11T09:59:43;1.55;;;0.85;;
70981;SDS011;58640;51.320;9.456;2023-03-11T10:02:11;4.38;;;1.30;;
70981;SDS011;58640;51.320;9.456;2023-03-11T10:04:42;5.15;;;1.08;;
70981;SDS011;58640;51.320;9.456;2023-03-11T10:07:16;3.83;;;0.90;;
70981;SDS011;58640;51.320;9.456;2023-03-11T10:09:50;8.10;;;1.00;;
70981;SDS011;58640;51.320;9.456;2023-03-11T10:12:31;3.75;;;0.90;;
70981;SDS011;58640;51.320;9.456;2023-03-11T10:17:56;4.97;;;1.30;;
70981;SDS011;58640;51.320;9.456;2023-03-11T10:26:17;3.92;;;1.02;;
70981;SDS011;58640;51.320;9.456;2023-03-11T10:29:02;3.35;;;0.88;;
70981;SDS011;58640;51.320;9.456;2023-03-11T10:31:39;1.73;;;0.60;;
70981;SDS011;58640;51.320;9.456;2023-03-11T10:34:45;1.65;;;0.90;;
70981;SDS011;58640;51.320;9.456;2023-03-11T10:37:18;1.70;;;0.63;;
70981;SDS011;58640;51.320;9.456;2023-03-11T10:39:49;2.70;;;0.98;;
70981;SDS011;58640;51.320;9.456;2023-03-11T10:42:20;2.10;;;0.68;;
70981;SDS011;58640;51.320;9.456;2023-03-11T10:44:49;3.38;;;1.00;;
70981;SDS011;58640;51.320;9.456;2023-03-11T10:47:16;5.70;;;1.10;;
70981;SDS011;58640;51.320;9.456;2023-03-11T10:49:46;1.73;;;0.87;;
70981;SDS011;58640;51.320;9.456;2023-03-11T10:52:12;6.82;;;1.63;;
70981;SDS011;58640;51.320;9.456;2023-03-11T10:54:42;3.92;;;0.90;;
70981;SDS011;58640;51.320;9.456;2023-03-11T10:59:59;5.45;;;0.68;;
70981;SDS011;58640;51.320;9.456;2023-03-11T11:07:43;2.05;;;0.60;;
70981;SDS011;58640;51.320;9.456;2023-03-11T11:15:34;3.53;;;1.15;;
70981;SDS011;58640;51.320;9.456;2023-03-11T11:18:02;2.60;;;0.95;;
70981;SDS011;58640;51.320;9.456;2023-03-11T11:20:51;2.58;;;0.95;;
70981;SDS011;58640;51.320;9.456;2023-03-11T11:23:59;1.42;;;0.88;;
70981;SDS011;58640;51.320;9.456;2023-03-11T11:26:17;1.88;;;0.82;;
70981;SDS011;58640;51.320;9.456;2023-03-11T11:28:45;3.80;;;1.00;;
70981;SDS011;58640;51.320;9.456;2023-03-11T11:31:28;4.88;;;0.90;;
70981;SDS011;58640;51.320;9.456;2023-03-11T11:33:54;4.75;;;0.70;;
70981;SDS011;58640;51.320;9.456;2023-03-11T11:36:21;1.65;;;0.90;;
70981;SDS011;58640;51.320;9.456;2023-03-11T11:38:52;5.55;;;1.02;;
70981;SDS011;58640;51.320;9.456;2023-03-11T11:41:19;2.08;;;0.93;;
70981;SDS011;58640;51.320;9.456;2023-03-11T11:43:57;7.63;;;2.70;;
70981;SDS011;58640;51.320;9.456;2023-03-11T11:51:50;2.67;;;0.93;;
70981;SDS011;58640;51.320;9.456;2023-03-11T11:57:12;3.15;;;0.55;;
70981;SDS011;58640;51.320;9.456;2023-03-11T11:59:39;1.20;;;0.82;;
70981;SDS011;58640;51.320;9.456;2023-03-11T12:04:54;3.38;;;1.00;;
70981;SDS011;58640;51.320;9.456;2023-03-11T12:07:25;3.35;;;0.60;;
70981;SDS011;58640;51.320;9.456;2023-03-11T12:12:57;4.78;;;0.90;;
70981;SDS011;58640;51.320;9.456;2023-03-11T12:15:51;1.42;;;0.77;;
70981;SDS011;58640;51.320;9.456;2023-03-11T12:19:15;1.67;;;0.70;;
70981;SDS011;58640;51.320;9.456;2023-03-11T12:26:35;2.95;;;1.30;;
70981;SDS011;58640;51.320;9.456;2023-03-11T12:29:17;3.05;;;0.88;;
70981;SDS011;58640;51.320;9.456;2023-03-11T12:32:23;1.88;;;1.00;;
70981;SDS011;58640;51.320;9.456;2023-03-11T12:35:18;1.58;;;0.60;;
70981;SDS011;58640;51.320;9.456;2023-03-11T12:38:49;3.92;;;0.70;;
70981;SDS011;58640;51.320;9.456;2023-03-11T12:41:00;1.52;;;0.80;;
70981;SDS011;58640;51.320;9.456;2023-03-11T12:45:58;3.25;;;0.80;;
70981;SDS011;58640;51.320;9.456;2023-03-11T12:48:32;2.00;;;0.88;;
70981;SDS011;58640;51.320;9.456;2023-03-11T12:51:12;2.55;;;0.90;;
70981;SDS011;58640;51.320;9.456;2023-03-11T12:57:00;4.22;;;1.40;;
70981;SDS011;58640;51.320;9.456;2023-03-11T13:05:40;1.40;;;0.70;;
70981;SDS011;58640;51.320;9.456;2023-03-11T13:16:42;5.05;;;0.98;;
70981;SDS011;58640;51.320;9.456;2023-03-11T13:21:56;3.38;;;1.13;;
70981;SDS011;58640;51.320;9.456;2023-03-11T13:32:41;2.85;;;1.00;;
70981;SDS011;58640;51.320;9.456;2023-03-11T13:38:16;2.25;;;1.00;;
70981;SDS011;58640;51.320;9.456;2023-03-11T13:40:44;3.03;;;0.88;;
70981;SDS011;58640;51.320;9.456;2023-03-11T13:45:40;1.25;;;0.70;;
70981;SDS011;58640;51.320;9.456;2023-03-11T13:48:15;2.97;;;0.50;;
70981;SDS011;58640;51.320;9.456;2023-03-11T13:50:50;3.28;;;0.93;;
70981;SDS011;58640;51.320;9.456;2023-03-11T13:53:21;2.17;;;0.80;;
70981;SDS011;58640;51.320;9.456;2023-03-11T13:55:52;3.08;;;1.08;;
70981;SDS011;58640;51.320;9.456;2023-03-11T13:58:22;4.18;;;0.90;;
70981;SDS011;58640;51.320;9.456;2023-03-11T14:03:22;2.45;;;1.00;;
70981;SDS011;58640;51.320;9.456;2023-03-11T14:06:02;1.88;;;0.80;;
70981;SDS011;58640;51.320;9.456;2023-03-11T14:08:37;6.05;;;1.15;;
70981;SDS011;58640;51.320;9.456;2023-03-11T14:20:55;2.53;;;1.55;;
70981;SDS011;58640;51.320;9.456;2023-03-11T14:23:21;3.65;;;1.30;;
70981;SDS011;58640;51.320;9.456;2023-03-11T14:25:56;6.72;;;1.58;;
70981;SDS011;58640;51.320;9.456;2023-03-11T14:28:23;7.53;;;1.35;;
70981;SDS011;58640;51.320;9.456;2023-03-11T14:30:59;5.57;;;1.42;;
70981;SDS011;58640;51.320;9.456;2023-03-11T14:33:25;2.67;;;1.25;;
70981;SDS011;58640;51.320;9.456;2023-03-11T14:35:52;4.10;;;1.10;;
70981;SDS011;58640;51.320;9.456;2023-03-11T14:38:26;7.07;;;1.25;;
70981;SDS011;58640;51.320;9.456;2023-03-11T14:40:55;4.80;;;0.90;;
70981;SDS011;58640;51.320;9.456;2023-03-11T14:43:23;2.83;;;0.82;;
70981;SDS011;58640;51.320;9.456;2023-03-11T14:45:49;2.88;;;1.00;;
70981;SDS011;58640;51.320;9.456;2023-03-11T14:51:02;6.05;;;1.13;;
70981;SDS011;58640;51.320;9.456;2023-03-11T14:53:43;1.35;;;0.75;;
70981;SDS011;58640;51.320;9.456;2023-03-11T14:56:17;2.50;;;0.60;;
70981;SDS011;58640;51.320;9.456;2023-03-11T14:59:05;2.85;;;0.80;;
70981;SDS011;58640;51.320;9.456;2023-03-11T15:01:37;0.90;;;0.70;;
70981;SDS011;58640;51.320;9.456;2023-03-11T15:04:09;1.67;;;0.57;;
70981;SDS011;58640;51.320;9.456;2023-03-11T15:06:37;1.90;;;0.88;;
70981;SDS011;58640;51.320;9.456;2023-03-11T15:09:06;2.42;;;1.17;;
70981;SDS011;58640;51.320;9.456;2023-03-11T15:11:47;5.78;;;1.10;;
70981;SDS011;58640;51.320;9.456;2023-03-11T15:14:23;3.72;;;1.58;;
70981;SDS011;58640;51.320;9.456;2023-03-11T15:16:51;3.83;;;2.20;;
70981;SDS011;58640;51.320;9.456;2023-03-11T15:21:52;7.05;;;3.10;;
70981;SDS011;58640;51.320;9.456;2023-03-11T15:24:20;5.72;;;2.88;;
70981;SDS011;58640;51.320;9.456;2023-03-11T15:26:52;6.72;;;1.95;;
70981;SDS011;58640;51.320;9.456;2023-03-11T15:29:18;2.40;;;1.30;;
70981;SDS011;58640;51.320;9.456;2023-03-11T15:31:43;2.22;;;1.20;;
70981;SDS011;58640;51.320;9.456;2023-03-11T15:34:20;2.05;;;1.00;;
70981;SDS011;58640;51.320;9.456;2023-03-11T15:37:04;7.60;;;1.42;;
70981;SDS011;58640;51.320;9.456;2023-03-11T15:39:43;4.85;;;1.23;;
70981;SDS011;58640;51.320;9.456;2023-03-11T15:42:11;3.05;;;1.05;;
70981;SDS011;58640;51.320;9.456;2023-03-11T15:44:48;1.02;;;0.93;;
70981;SDS011;58640;51.320;9.456;2023-03-11T15:47:17;4.53;;;0.80;;
70981;SDS011;58640;51.320;9.456;2023-03-11T15:49:46;4.97;;;0.80;;
70981;SDS011;58640;51.320;9.456;2023-03-11T15:52:12;4.00;;;1.38;;
70981;SDS011;58640;51.320;9.456;2023-03-11T15:54:38;3.58;;;1.00;;
70981;SDS011;58640;51.320;9.456;2023-03-11T15:57:04;1.38;;;1.05;;
70981;SDS011;58640;51.320;9.456;2023-03-11T15:59:32;1.92;;;0.98;;
70981;SDS011;58640;51.320;9.456;2023-03-11T16:01:58;3.10;;;1.80;;
70981;SDS011;58640;51.320;9.456;2023-03-11T16:04:24;3.03;;;0.88;;
70981;SDS011;58640;51.320;9.456;2023-03-11T16:06:50;1.77;;;0.85;;
70981;SDS011;58640;51.320;9.456;2023-03-11T16:09:15;2.05;;;1.10;;
70981;SDS011;58640;51.320;9.456;2023-03-11T16:11:41;6.03;;;0.77;;
70981;SDS011;58640;51.320;9.456;2023-03-11T16:14:17;2.97;;;1.02;;
70981;SDS011;58640;51.320;9.456;2023-03-11T16:16:44;2.35;;;1.05;;
70981;SDS011;58640;51.320;9.456;2023-03-11T16:19:11;1.50;;;1.00;;
70981;SDS011;58640;51.320;9.456;2023-03-11T16:21:41;3.80;;;1.13;;
70981;SDS011;58640;51.320;9.456;2023-03-11T16:24:15;3.50;;;0.80;;
70981;SDS011;58640;51.320;9.456;2023-03-11T16:26:46;2.63;;;1.33;;
70981;SDS011;58640;51.320;9.456;2023-03-11T16:29:12;5.13;;;1.13;;
70981;SDS011;58640;51.320;9.456;2023-03-11T16:31:39;5.70;;;1.15;;
70981;SDS011;58640;51.320;9.456;2023-03-11T16:34:04;0.90;;;0.60;;
70981;SDS011;58640;51.320;9.456;2023-03-11T16:36:30;2.85;;;0.73;;
70981;SDS011;58640;51.320;9.456;2023-03-11T16:38:55;0.80;;;0.80;;
70981;SDS011;58640;51.320;9.456;2023-03-11T16:41:20;1.58;;;0.60;;
70981;SDS011;58640;51.320;9.456;2023-03-11T16:43:46;2.70;;;0.77;;